Time;durP1;ratioP1;P1;durP2;ratioP2;P2;SDS_P1;SDS_P2;PMS_P1;PMS_P2;Temp;Humidity;BMP_temperature;BMP_pressure;BME280_temperature;BME280_humidity;BME280_pressure;Samples;Min_cycle;Max_cycle;Signal;HPM_P1;HPM_P2
2023/12/09 00:01:05;;;;;;;206.47;70.63;;;7.00;90.70;;;;;;5045085;28;20090;-75
2023/12/09 00:03:31;;;;;;;206.53;71.57;;;6.90;90.70;;;;;;5045450;28;20056;-75
2023/12/09 00:05:56;;;;;;;198.10;71.83;;;7.00;90.70;;;;;;5045982;28;20039;-75
2023/12/09 00:08:22;;;;;;;205.83;68.37;;;7.00;90.70;;;;;;5044904;28;20049;-74
2023/12/09 00:10:48;;;;;;;208.23;69.90;;;7.00;90.60;;;;;;5045899;28;20084;-75
2023/12/09 00:13:13;;;;;;;201.10;70.53;;;7.00;90.60;;;;;;5043775;28;20187;-75
2023/12/09 00:15:39;;;;;;;202.83;66.47;;;7.00;90.60;;;;;;5045121;28;20057;-75
2023/12/09 00:18:05;;;;;;;177.17;67.07;;;7.00;90.70;;;;;;5045570;28;20064;-75
2023/12/09 00:20:30;;;;;;;206.50;68.43;;;7.00;90.60;;;;;;5045049;28;20260;-75
2023/12/09 00:22:56;;;;;;;189.60;67.07;;;7.00;90.50;;;;;;5028299;28;20051;-75
2023/12/09 00:25:22;;;;;;;183.17;67.13;;;7.00;90.50;;;;;;5043321;28;20416;-74
2023/12/09 00:27:47;;;;;;;212.43;67.90;;;7.00;90.50;;;;;;5044665;28;20099;-75
2023/12/09 00:30:13;;;;;;;208.50;68.67;;;7.00;90.40;;;;;;5043276;28;20040;-75
2023/12/09 00:32:39;;;;;;;205.17;69.43;;;7.00;90.50;;;;;;5044201;28;20040;-75
2023/12/09 00:35:05;;;;;;;188.60;67.00;;;7.00;90.40;;;;;;5045320;28;20529;-74
2023/12/09 00:37:31;;;;;;;200.20;70.70;;;7.00;90.50;;;;;;5045431;28;20045;-75
2023/12/09 00:39:56;;;;;;;194.90;69.00;;;7.00;90.40;;;;;;5045585;28;20448;-75
2023/12/09 00:42:22;;;;;;;195.70;65.80;;;7.00;90.30;;;;;;5042742;28;20053;-74
2023/12/09 00:44:48;;;;;;;189.43;64.97;;;7.00;90.40;;;;;;5046342;28;20049;-74
2023/12/09 00:47:14;;;;;;;191.30;67.40;;;7.00;90.40;;;;;;5045072;28;20110;-74
2023/12/09 00:49:39;;;;;;;172.67;62.03;;;7.00;90.30;;;;;;5045034;28;20135;-74
2023/12/09 00:52:05;;;;;;;174.47;63.90;;;7.00;90.40;;;;;;5044802;28;20079;-74
2023/12/09 00:54:31;;;;;;;175.20;60.83;;;7.00;90.40;;;;;;5044475;28;20053;-75
2023/12/09 00:56:56;;;;;;;169.00;64.87;;;7.00;90.40;;;;;;5045418;28;20044;-74
2023/12/09 00:59:22;;;;;;;156.37;59.87;;;7.00;90.30;;;;;;5044540;28;20434;-73
2023/12/09 01:01:48;;;;;;;165.10;60.93;;;7.00;90.40;;;;;;5042138;28;20072;-74
2023/12/09 01:04:13;;;;;;;155.03;58.30;;;7.00;90.40;;;;;;5045177;28;20044;-75
2023/12/09 01:06:39;;;;;;;155.03;56.60;;;7.00;90.40;;;;;;5044107;28;20053;-74
2023/12/09 01:09:04;;;;;;;137.93;56.03;;;7.00;90.30;;;;;;5043545;28;20072;-74
2023/12/09 01:11:30;;;;;;;151.73;58.20;;;7.00;90.30;;;;;;5044118;28;20049;-74
2023/12/09 01:13:56;;;;;;;160.20;57.53;;;7.00;90.30;;;;;;5044025;28;20045;-74
2023/12/09 01:16:21;;;;;;;132.37;56.57;;;7.00;90.30;;;;;;5043955;28;20049;-71
2023/12/09 01:18:47;;;;;;;151.27;58.27;;;7.00;90.30;;;;;;5042537;28;20029;-74
2023/12/09 01:21:13;;;;;;;163.70;57.80;;;7.00;90.20;;;;;;5044422;28;20033;-74
2023/12/09 01:23:39;;;;;;;150.40;56.77;;;7.00;90.20;;;;;;5045156;28;20045;-75
2023/12/09 01:26:07;;;;;;;150.07;57.10;;;7.00;90.10;;;;;;5044446;28;20071;-74
2023/12/09 01:28:32;;;;;;;153.30;56.03;;;7.00;90.20;;;;;;5044816;28;20472;-74
2023/12/09 01:30:58;;;;;;;162.23;56.97;;;7.00;90.10;;;;;;5044241;28;20106;-74
2023/12/09 01:33:24;;;;;;;143.53;55.33;;;7.00;90.10;;;;;;5043438;28;20072;-74
2023/12/09 01:35:49;;;;;;;134.53;54.43;;;7.00;90.10;;;;;;5043640;28;20064;-74
2023/12/09 01:38:15;;;;;;;135.57;54.27;;;7.00;90.10;;;;;;5044633;28;20052;-74
2023/12/09 01:40:40;;;;;;;132.30;52.97;;;7.00;90.10;;;;;;5043547;28;20053;-74
2023/12/09 01:43:10;;;;;;;136.53;52.77;;;7.00;90.00;;;;;;5048320;28;20123;-75
2023/12/09 01:45:36;;;;;;;135.43;53.67;;;7.00;90.00;;;;;;5044818;28;20135;-74
2023/12/09 01:48:03;;;;;;;135.60;51.33;;;7.00;90.00;;;;;;5048923;28;20128;-74
2023/12/09 01:50:30;;;;;;;131.43;52.30;;;7.00;90.00;;;;;;5045378;28;20463;-74
2023/12/09 01:52:58;;;;;;;127.47;50.17;;;7.00;90.00;;;;;;5048354;28;20447;-74
2023/12/09 01:55:24;;;;;;;114.73;49.30;;;7.00;90.00;;;;;;5047449;28;20084;-74
2023/12/09 01:57:51;;;;;;;117.40;46.83;;;7.00;90.00;;;;;;5047903;28;20037;-74
2023/12/09 02:00:18;;;;;;;117.60;46.83;;;7.00;90.00;;;;;;5048253;28;20044;-75
2023/12/09 02:02:45;;;;;;;116.70;47.20;;;7.00;90.00;;;;;;5030071;28;20051;-74
2023/12/09 02:05:11;;;;;;;121.93;46.47;;;7.00;89.80;;;;;;5048261;28;20041;-74
2023/12/09 02:07:37;;;;;;;120.13;45.33;;;7.00;89.80;;;;;;5045882;28;20115;-75
2023/12/09 02:10:04;;;;;;;102.47;44.03;;;7.00;89.80;;;;;;5047597;28;20045;-72
2023/12/09 02:12:42;;;;;;;108.03;44.90;;;7.00;89.80;;;;;;5063078;28;20045;-74
2023/12/09 02:15:31;;;;;;;102.03;41.90;;;7.10;89.80;;;;;;5047900;28;20041;-74
2023/12/09 02:18:01;;;;;;;102.10;42.13;;;7.00;89.70;;;;;;5029645;28;20357;-74
2023/12/09 02:20:27;;;;;;;102.13;42.33;;;7.10;89.70;;;;;;5038007;28;20108;-75
2023/12/09 02:23:12;;;;;;;108.83;40.07;;;7.10;89.70;;;;;;5034604;28;20421;-75
2023/12/09 02:25:39;;;;;;;111.63;42.27;;;7.10;89.60;;;;;;5033206;28;20546;-74
2023/12/09 02:28:26;;;;;;;97.20;39.47;;;7.10;89.50;;;;;;5035003;28;20048;-74
2023/12/09 02:30:59;;;;;;;98.63;38.43;;;7.10;89.50;;;;;;5025563;28;20084;-74
2023/12/09 02:33:26;;;;;;;96.60;38.87;;;7.10;89.40;;;;;;5028316;28;20045;-74
2023/12/09 02:35:53;;;;;;;99.30;38.77;;;7.10;89.40;;;;;;5033898;28;20974;-74
2023/12/09 02:38:20;;;;;;;91.70;37.70;;;7.10;89.40;;;;;;5046965;28;20037;-74
2023/12/09 02:40:47;;;;;;;105.10;39.23;;;7.20;89.30;;;;;;5025889;28;20038;-74
2023/12/09 02:43:13;;;;;;;97.90;38.93;;;7.20;89.30;;;;;;5026537;28;20517;-74
2023/12/09 02:45:39;;;;;;;99.33;40.63;;;7.20;89.20;;;;;;5031341;28;20041;-74
2023/12/09 02:48:05;;;;;;;87.27;38.90;;;7.20;89.20;;;;;;5047180;28;20386;-74
2023/12/09 02:50:31;;;;;;;93.17;38.00;;;7.20;89.10;;;;;;5045035;28;20487;-74
2023/12/09 02:52:57;;;;;;;103.80;40.20;;;7.20;89.10;;;;;;5046763;28;20053;-74
2023/12/09 02:55:23;;;;;;;97.00;39.70;;;7.10;89.00;;;;;;5047666;28;20234;-74
2023/12/09 02:57:49;;;;;;;95.50;39.47;;;7.10;89.00;;;;;;5045993;28;20048;-75
2023/12/09 03:00:14;;;;;;;100.33;38.80;;;7.10;88.90;;;;;;5047082;28;20442;-74
2023/12/09 03:02:40;;;;;;;101.47;39.27;;;7.10;89.00;;;;;;5045951;28;20053;-74
2023/12/09 03:05:06;;;;;;;98.57;38.20;;;7.10;88.90;;;;;;5047010;28;20049;-74
2023/12/09 03:07:32;;;;;;;91.50;38.63;;;7.10;88.80;;;;;;5043765;28;20067;-74
2023/12/09 03:09:57;;;;;;;88.30;37.43;;;7.10;88.80;;;;;;5046340;28;20056;-75
2023/12/09 03:12:23;;;;;;;93.23;38.60;;;7.10;88.90;;;;;;5046815;28;20179;-75
2023/12/09 03:14:49;;;;;;;88.93;36.87;;;7.10;88.80;;;;;;5047593;28;20439;-75
2023/12/09 03:17:14;;;;;;;88.73;37.63;;;7.10;88.80;;;;;;5046738;28;20044;-75
2023/12/09 03:19:40;;;;;;;90.53;35.73;;;7.00;88.70;;;;;;5046137;28;20367;-74
2023/12/09 03:22:06;;;;;;;85.53;36.20;;;7.10;88.60;;;;;;5047472;28;20094;-75
2023/12/09 03:24:31;;;;;;;86.53;35.40;;;7.10;88.60;;;;;;5047430;28;20052;-71
2023/12/09 03:26:57;;;;;;;91.37;37.07;;;7.00;88.50;;;;;;5038746;28;20083;-75
2023/12/09 03:29:23;;;;;;;82.73;33.37;;;7.00;88.40;;;;;;5032386;28;20045;-75
2023/12/09 03:31:49;;;;;;;77.10;34.47;;;7.10;88.50;;;;;;5025273;28;20478;-75
2023/12/09 03:34:15;;;;;;;80.80;34.03;;;7.00;88.30;;;;;;5027643;28;20080;-75
2023/12/09 03:36:41;;;;;;;72.93;33.50;;;7.00;88.30;;;;;;5026684;28;20403;-74
2023/12/09 03:39:07;;;;;;;75.70;34.37;;;7.00;88.20;;;;;;5027168;28;20067;-75
2023/12/09 03:41:34;;;;;;;75.80;32.67;;;7.00;88.00;;;;;;5038819;28;20064;-74
2023/12/09 03:44:01;;;;;;;73.90;30.70;;;7.00;88.00;;;;;;5046218;28;20077;-75
2023/12/09 03:46:26;;;;;;;71.33;31.13;;;7.00;88.00;;;;;;5045189;28;20646;-75
2023/12/09 03:48:52;;;;;;;72.23;29.67;;;7.00;87.80;;;;;;5046138;28;20045;-75
2023/12/09 03:51:17;;;;;;;75.93;31.73;;;7.00;87.70;;;;;;5045229;28;20349;-75
2023/12/09 03:53:43;;;;;;;73.00;31.37;;;6.90;87.80;;;;;;5045218;28;20040;-74
2023/12/09 03:56:17;;;;;;;78.50;32.13;;;6.90;87.80;;;;;;5045748;28;20040;-75
2023/12/09 03:58:42;;;;;;;66.53;29.90;;;6.90;87.80;;;;;;5043340;28;20091;-75
2023/12/09 04:01:11;;;;;;;77.80;31.93;;;6.90;87.80;;;;;;5038149;28;20535;-75
2023/12/09 04:03:37;;;;;;;77.27;31.13;;;7.00;87.80;;;;;;5045793;28;20541;-75
2023/12/09 04:06:03;;;;;;;73.10;31.37;;;7.00;87.80;;;;;;5044381;28;20044;-75
2023/12/09 04:08:29;;;;;;;71.07;31.87;;;6.90;87.60;;;;;;5044697;28;20057;-75
2023/12/09 04:10:55;;;;;;;66.60;31.57;;;7.00;87.60;;;;;;5043741;28;20067;-75
2023/12/09 04:13:20;;;;;;;82.70;33.17;;;7.00;87.70;;;;;;5046193;28;20064;-75
2023/12/09 04:15:47;;;;;;;77.43;33.03;;;7.00;87.50;;;;;;5045650;28;20079;-75
2023/12/09 04:18:12;;;;;;;71.20;32.17;;;6.90;87.50;;;;;;5042822;28;20090;-75
2023/12/09 04:20:38;;;;;;;73.07;31.23;;;6.90;87.50;;;;;;5045442;28;20053;-75
2023/12/09 04:23:04;;;;;;;84.17;34.23;;;6.90;87.50;;;;;;5045726;28;20102;-75
2023/12/09 04:25:31;;;;;;;78.73;33.77;;;6.90;87.50;;;;;;5045833;28;20088;-75
2023/12/09 04:27:56;;;;;;;66.30;31.50;;;6.90;87.50;;;;;;5045095;28;20055;-75
2023/12/09 04:30:22;;;;;;;79.67;33.57;;;6.90;87.60;;;;;;5044625;28;20041;-75
2023/12/09 04:32:48;;;;;;;80.70;32.97;;;6.90;87.50;;;;;;5044318;28;20037;-75
2023/12/09 04:35:14;;;;;;;77.30;30.83;;;6.90;87.60;;;;;;5045229;28;20051;-74
2023/12/09 04:37:40;;;;;;;78.33;31.50;;;6.90;87.60;;;;;;5044615;28;20422;-74
2023/12/09 04:40:10;;;;;;;78.30;31.63;;;6.90;87.50;;;;;;5044528;28;20059;-75
2023/12/09 04:42:39;;;;;;;77.77;30.43;;;6.90;87.50;;;;;;5043349;28;20049;-73
2023/12/09 04:45:06;;;;;;;76.50;31.97;;;6.90;87.50;;;;;;5042954;28;20045;-74
2023/12/09 04:47:36;;;;;;;62.90;29.40;;;6.90;87.50;;;;;;5044834;28;20156;-75
2023/12/09 04:50:04;;;;;;;69.00;29.97;;;6.90;87.50;;;;;;5037136;28;20056;-75
2023/12/09 04:52:30;;;;;;;76.57;29.87;;;6.90;87.60;;;;;;5035952;28;20056;-75
2023/12/09 04:54:56;;;;;;;68.97;30.17;;;6.90;87.50;;;;;;5034657;28;20637;-75
2023/12/09 04:57:22;;;;;;;67.03;29.83;;;6.90;87.50;;;;;;5038972;28;20049;-75
2023/12/09 04:59:48;;;;;;;71.23;29.17;;;6.90;87.50;;;;;;5044195;28;20045;-75
2023/12/09 05:02:14;;;;;;;72.43;28.17;;;6.90;87.30;;;;;;5044822;28;20393;-75
2023/12/09 05:04:39;;;;;;;72.87;28.57;;;6.90;87.30;;;;;;5045075;28;20057;-74
2023/12/09 05:07:05;;;;;;;65.83;27.27;;;6.90;87.20;;;;;;5044913;28;20072;-75
2023/12/09 05:09:31;;;;;;;69.80;28.27;;;6.90;87.20;;;;;;5044980;28;20041;-75
2023/12/09 05:11:57;;;;;;;65.37;29.57;;;6.90;87.20;;;;;;5043984;28;20148;-76
2023/12/09 05:14:22;;;;;;;64.17;27.33;;;6.90;87.20;;;;;;5042707;28;20440;-75
2023/12/09 05:16:48;;;;;;;71.27;29.83;;;6.90;87.00;;;;;;5039724;28;20068;-75
2023/12/09 05:19:14;;;;;;;67.63;27.67;;;6.90;87.00;;;;;;5046340;28;20041;-75
2023/12/09 05:21:39;;;;;;;68.43;28.13;;;6.90;87.00;;;;;;5045884;28;20356;-75
2023/12/09 05:24:05;;;;;;;72.30;30.97;;;6.90;86.90;;;;;;5045449;28;20115;-75
2023/12/09 05:26:31;;;;;;;63.33;26.67;;;6.90;86.90;;;;;;5037085;28;20209;-75
2023/12/09 05:28:57;;;;;;;66.60;26.57;;;6.90;87.00;;;;;;5043752;28;20053;-75
2023/12/09 05:31:23;;;;;;;62.20;27.10;;;6.90;87.00;;;;;;5048334;28;20060;-75
2023/12/09 05:33:50;;;;;;;65.00;27.67;;;6.90;87.10;;;;;;5049216;28;20048;-75
2023/12/09 05:36:15;;;;;;;67.83;25.80;;;6.90;87.00;;;;;;5047537;28;20045;-75
2023/12/09 05:38:42;;;;;;;64.40;25.53;;;6.90;87.00;;;;;;5038302;28;20403;-74
2023/12/09 05:41:08;;;;;;;67.77;26.20;;;6.90;87.00;;;;;;5044195;28;20555;-75
2023/12/09 05:43:36;;;;;;;71.87;27.27;;;6.90;87.00;;;;;;5044820;28;20676;-75
2023/12/09 05:46:02;;;;;;;70.90;26.17;;;6.90;87.00;;;;;;5045038;28;20060;-75
2023/12/09 05:48:27;;;;;;;68.67;27.53;;;6.90;87.00;;;;;;5044955;28;20049;-75
2023/12/09 05:50:53;;;;;;;65.20;27.23;;;6.90;87.10;;;;;;5045062;28;20490;-75
2023/12/09 05:53:18;;;;;;;68.37;26.47;;;6.90;87.10;;;;;;5044129;28;20458;-75
2023/12/09 05:55:44;;;;;;;60.23;26.33;;;6.90;87.10;;;;;;5043591;28;20045;-75
2023/12/09 05:58:10;;;;;;;56.00;25.73;;;6.90;87.10;;;;;;5046911;28;20420;-75
2023/12/09 06:00:35;;;;;;;61.83;25.10;;;6.90;86.90;;;;;;5037196;28;20480;-76
2023/12/09 06:03:01;;;;;;;65.70;26.33;;;6.90;86.80;;;;;;5047388;28;20044;-75
2023/12/09 06:05:27;;;;;;;57.20;25.43;;;6.90;86.90;;;;;;5046949;28;20388;-75
2023/12/09 06:07:53;;;;;;;63.30;24.67;;;6.90;86.80;;;;;;5048252;28;20044;-75
2023/12/09 06:10:18;;;;;;;58.53;24.40;;;6.90;86.80;;;;;;5047776;28;20376;-75
2023/12/09 06:12:44;;;;;;;56.80;23.73;;;6.90;86.70;;;;;;5046419;28;20055;-75
2023/12/09 06:15:10;;;;;;;59.27;23.80;;;6.90;86.60;;;;;;5046135;28;20041;-75
2023/12/09 06:17:35;;;;;;;55.63;22.77;;;6.90;86.70;;;;;;5045767;28;20053;-75
2023/12/09 06:20:02;;;;;;;58.30;23.20;;;6.90;86.70;;;;;;5047259;28;20477;-75
2023/12/09 06:22:29;;;;;;;68.53;23.13;;;6.80;86.60;;;;;;5048144;28;20044;-75
2023/12/09 06:24:54;;;;;;;63.50;24.70;;;6.80;86.60;;;;;;5047725;28;20045;-75
2023/12/09 06:27:20;;;;;;;58.67;22.63;;;6.80;86.70;;;;;;5046928;28;20075;-75
2023/12/09 06:29:46;;;;;;;53.37;21.73;;;6.80;86.60;;;;;;5044953;28;20059;-75
2023/12/09 06:32:13;;;;;;;57.87;23.83;;;6.80;86.60;;;;;;5046614;28;20044;-75
2023/12/09 06:34:38;;;;;;;66.40;24.20;;;6.80;86.70;;;;;;5046828;28;20068;-74
2023/12/09 06:37:04;;;;;;;65.43;23.70;;;6.80;86.70;;;;;;5047768;28;20391;-75
2023/12/09 06:39:30;;;;;;;67.30;23.53;;;6.80;86.80;;;;;;5047421;28;20475;-75
2023/12/09 06:41:55;;;;;;;65.43;22.63;;;6.80;86.80;;;;;;5046895;28;20487;-75
2023/12/09 06:44:21;;;;;;;65.80;25.50;;;6.80;86.80;;;;;;5047711;28;20044;-75
2023/12/09 06:46:47;;;;;;;67.07;23.33;;;6.80;86.80;;;;;;5047018;28;20069;-75
2023/12/09 06:49:13;;;;;;;65.33;23.57;;;6.80;86.70;;;;;;5045051;28;20831;-75
2023/12/09 06:51:41;;;;;;;67.17;24.17;;;6.80;86.60;;;;;;5044275;28;20048;-74
2023/12/09 06:54:07;;;;;;;58.77;23.83;;;6.70;86.50;;;;;;5041399;28;20037;-75
2023/12/09 06:56:32;;;;;;;59.77;23.97;;;6.70;86.50;;;;;;5045735;28;20078;-75
2023/12/09 06:58:58;;;;;;;63.80;30.13;;;6.70;86.50;;;;;;5042541;28;20087;-75
2023/12/09 07:01:25;;;;;;;65.57;25.73;;;6.70;86.50;;;;;;5026476;28;20474;-75
2023/12/09 07:03:51;;;;;;;65.93;24.10;;;6.70;86.50;;;;;;5024853;28;20045;-75
2023/12/09 07:06:21;;;;;;;53.23;22.83;;;6.70;86.40;;;;;;5027368;28;20476;-75
2023/12/09 07:08:47;;;;;;;62.40;26.13;;;6.70;86.40;;;;;;5026606;28;20046;-75
2023/12/09 07:11:13;;;;;;;57.43;23.13;;;6.70;86.20;;;;;;5036184;28;20048;-75
2023/12/09 07:13:39;;;;;;;62.93;24.83;;;6.70;86.00;;;;;;5047480;28;20057;-74
2023/12/09 07:16:08;;;;;;;63.00;23.50;;;6.70;86.10;;;;;;5046645;28;20435;-75
2023/12/09 07:18:34;;;;;;;49.83;20.83;;;6.60;86.10;;;;;;5046528;28;20053;-75
2023/12/09 07:20:59;;;;;;;51.23;20.40;;;6.60;85.90;;;;;;5044627;28;20047;-75
2023/12/09 07:23:25;;;;;;;50.20;20.17;;;6.60;86.00;;;;;;5040452;28;20045;-75
2023/12/09 07:25:51;;;;;;;52.47;20.40;;;6.60;85.90;;;;;;5041066;28;20053;-75
2023/12/09 07:28:16;;;;;;;44.63;19.10;;;6.50;85.80;;;;;;5041556;28;20076;-76
2023/12/09 07:30:42;;;;;;;49.27;19.37;;;6.60;85.70;;;;;;5041268;28;20053;-75
2023/12/09 07:33:08;;;;;;;47.87;27.00;;;6.60;85.60;;;;;;5042905;28;20499;-75
2023/12/09 07:35:33;;;;;;;50.80;19.87;;;6.50;85.50;;;;;;5043074;28;20353;-75
2023/12/09 07:37:59;;;;;;;52.57;21.63;;;6.50;85.50;;;;;;5040218;28;20049;-76
2023/12/09 07:40:25;;;;;;;44.17;19.67;;;6.50;85.40;;;;;;5025446;28;20433;-75
2023/12/09 07:42:50;;;;;;;48.00;19.33;;;6.50;85.40;;;;;;5043665;28;20132;-75
2023/12/09 07:45:16;;;;;;;52.30;19.77;;;6.50;85.50;;;;;;5041589;28;20470;-75
2023/12/09 07:47:42;;;;;;;55.20;20.20;;;6.40;85.60;;;;;;5042229;28;20044;-75
2023/12/09 07:50:08;;;;;;;52.23;23.10;;;6.40;85.60;;;;;;5043511;28;20080;-76
2023/12/09 07:52:33;;;;;;;52.20;18.57;;;6.40;85.70;;;;;;5043740;28;20500;-75
2023/12/09 07:54:59;;;;;;;54.30;18.90;;;6.40;85.70;;;;;;5026498;28;20057;-75
2023/12/09 07:57:25;;;;;;;53.50;19.70;;;6.40;85.60;;;;;;5042079;28;20405;-75
2023/12/09 07:59:51;;;;;;;57.00;19.67;;;6.40;85.70;;;;;;5032981;28;20404;-75
2023/12/09 08:02:16;;;;;;;52.47;20.30;;;6.40;85.70;;;;;;5040826;28;20507;-75
2023/12/09 08:04:42;;;;;;;55.47;19.23;;;6.40;85.70;;;;;;5041555;28;20329;-75
2023/12/09 08:07:07;;;;;;;59.37;20.50;;;6.40;85.70;;;;;;5042989;28;21799;-75
2023/12/09 08:09:33;;;;;;;52.60;18.27;;;6.40;85.80;;;;;;5035008;28;20383;-75
2023/12/09 08:11:59;;;;;;;53.63;17.97;;;6.40;85.70;;;;;;5041726;28;20044;-75
2023/12/09 08:14:24;;;;;;;56.13;18.47;;;6.40;85.70;;;;;;5041852;28;20049;-75
2023/12/09 08:16:50;;;;;;;55.63;18.27;;;6.40;85.70;;;;;;5041953;28;20095;-75
2023/12/09 08:19:16;;;;;;;51.83;19.50;;;6.40;85.70;;;;;;5042844;28;20091;-76
2023/12/09 08:21:42;;;;;;;52.60;20.07;;;6.40;85.70;;;;;;5042311;28;20048;-75
2023/12/09 08:24:07;;;;;;;54.13;28.57;;;6.40;85.70;;;;;;5041326;28;20098;-76
2023/12/09 08:26:33;;;;;;;54.50;17.97;;;6.40;85.70;;;;;;5032939;28;20060;-77
2023/12/09 08:29:00;;;;;;;50.00;18.50;;;6.40;85.50;;;;;;5033415;28;20052;-76
2023/12/09 08:31:26;;;;;;;60.53;19.40;;;6.40;85.40;;;;;;5052622;28;20110;-75
2023/12/09 08:33:51;;;;;;;50.67;18.93;;;6.40;85.50;;;;;;5039456;28;20495;-75
2023/12/09 08:36:17;;;;;;;60.50;21.03;;;6.40;85.40;;;;;;5035324;28;20477;-75
2023/12/09 08:38:43;;;;;;;50.33;19.77;;;6.40;85.40;;;;;;5037438;28;20053;-75
2023/12/09 08:41:08;;;;;;;55.47;21.37;;;6.40;85.50;;;;;;5039640;28;20049;-75
2023/12/09 08:43:34;;;;;;;51.13;18.60;;;6.40;85.50;;;;;;5038942;28;20036;-74
2023/12/09 08:46:00;;;;;;;46.60;16.17;;;6.30;85.50;;;;;;5040659;28;20044;-75
2023/12/09 08:48:26;;;;;;;50.90;17.73;;;6.30;85.40;;;;;;5040489;28;20061;-75
2023/12/09 08:50:52;;;;;;;50.10;17.33;;;6.30;85.40;;;;;;5039630;28;20045;-75
2023/12/09 08:53:17;;;;;;;52.80;18.57;;;6.30;85.50;;;;;;5042403;28;20423;-75
2023/12/09 08:55:44;;;;;;;46.80;17.83;;;6.30;85.60;;;;;;5034341;28;20166;-75
2023/12/09 08:58:09;;;;;;;67.97;37.60;;;6.30;85.60;;;;;;5041401;28;20171;-75
2023/12/09 09:00:35;;;;;;;50.80;18.20;;;6.30;85.50;;;;;;5039010;28;20049;-74
2023/12/09 09:03:03;;;;;;;36.37;18.20;;;6.30;85.60;;;;;;5040434;28;20132;-75
2023/12/09 09:05:29;;;;;;;48.40;16.10;;;6.30;85.60;;;;;;5040490;28;20081;-75
2023/12/09 09:07:54;;;;;;;44.33;16.00;;;6.30;85.50;;;;;;5034882;28;20087;-75
2023/12/09 09:10:20;;;;;;;42.43;16.57;;;6.30;85.50;;;;;;5033827;28;20075;-75
2023/12/09 09:12:46;;;;;;;49.10;15.13;;;6.30;85.50;;;;;;5039788;28;20476;-75
2023/12/09 09:15:12;;;;;;;54.40;14.90;;;6.40;85.40;;;;;;5039975;28;20510;-75
2023/12/09 09:17:41;;;;;;;40.47;14.07;;;6.30;85.30;;;;;;5031544;28;20060;-75
2023/12/09 09:20:07;;;;;;;49.97;14.60;;;6.40;85.30;;;;;;5040946;28;20419;-75
2023/12/09 09:22:33;;;;;;;48.17;16.47;;;6.30;85.30;;;;;;5030220;28;21030;-76
2023/12/09 09:24:59;;;;;;;47.90;19.77;;;6.40;85.30;;;;;;5032917;28;20472;-76
2023/12/09 09:27:25;;;;;;;50.00;14.67;;;6.40;85.30;;;;;;5024646;28;20056;-75
2023/12/09 09:29:51;;;;;;;49.07;15.17;;;6.40;85.30;;;;;;5028435;28;20045;-75
2023/12/09 09:32:17;;;;;;;40.07;14.00;;;6.40;85.20;;;;;;5020655;28;20061;-75
2023/12/09 09:34:43;;;;;;;48.07;15.13;;;6.40;85.20;;;;;;5018438;28;20483;-75
2023/12/09 09:37:09;;;;;;;43.47;13.73;;;6.40;85.20;;;;;;5016081;28;20124;-75
2023/12/09 09:39:35;;;;;;;44.47;14.80;;;6.40;85.20;;;;;;5017147;28;20400;-74
2023/12/09 09:42:15;;;;;;;44.30;22.13;;;6.40;85.20;;;;;;5023719;28;20052;-75
2023/12/09 09:44:55;;;;;;;45.90;13.47;;;6.50;85.20;;;;;;5030718;28;20053;-75
2023/12/09 09:47:21;;;;;;;43.37;13.37;;;6.50;85.10;;;;;;5040178;28;20041;-75
2023/12/09 09:49:48;;;;;;;36.73;12.90;;;6.50;85.00;;;;;;5041403;28;20055;-75
2023/12/09 09:52:17;;;;;;;36.93;12.30;;;6.50;84.70;;;;;;5040816;28;20041;-75
2023/12/09 09:54:45;;;;;;;36.90;11.80;;;6.50;84.80;;;;;;5038330;28;20071;-75
2023/12/09 09:57:11;;;;;;;39.97;18.10;;;6.50;84.70;;;;;;5056173;28;20052;-75
2023/12/09 09:59:37;;;;;;;34.93;13.47;;;6.50;84.50;;;;;;5031183;28;20403;-75
2023/12/09 10:02:04;;;;;;;30.20;10.67;;;6.50;84.40;;;;;;5001473;28;20393;-75
2023/12/09 10:04:32;;;;;;;35.37;10.80;;;6.50;84.40;;;;;;5022901;28;20504;-75
2023/12/09 10:06:59;;;;;;;32.53;10.97;;;6.50;84.10;;;;;;5030029;28;20112;-75
2023/12/09 10:09:25;;;;;;;37.00;12.30;;;6.50;84.00;;;;;;5044644;28;20541;-75
2023/12/09 10:11:50;;;;;;;33.80;10.30;;;6.50;84.00;;;;;;5043147;28;20049;-75
2023/12/09 10:14:16;;;;;;;31.90;11.53;;;6.50;84.00;;;;;;5043493;28;20162;-75
2023/12/09 10:16:44;;;;;;;35.27;11.63;;;6.50;84.00;;;;;;5042093;28;20559;-75
2023/12/09 10:19:14;;;;;;;43.90;29.83;;;6.60;84.00;;;;;;5044401;28;20044;-76
2023/12/09 10:21:40;;;;;;;29.27;10.00;;;6.50;83.50;;;;;;5042897;28;20037;-75
2023/12/09 10:24:06;;;;;;;31.13;11.27;;;6.50;83.60;;;;;;5044434;28;20515;-75
2023/12/09 10:26:32;;;;;;;36.10;11.70;;;6.60;83.40;;;;;;5042175;28;20480;-76
2023/12/09 10:28:57;;;;;;;42.47;12.67;;;6.60;83.70;;;;;;5040284;28;20060;-77
2023/12/09 10:31:23;;;;;;;27.43;9.17;;;6.60;83.70;;;;;;5043932;28;20053;-75
2023/12/09 10:33:50;;;;;;;38.17;18.77;;;6.60;83.40;;;;;;5044230;28;20549;-76
2023/12/09 10:36:17;;;;;;;27.43;9.33;;;6.60;83.50;;;;;;5038059;28;20049;-75
2023/12/09 10:38:42;;;;;;;29.23;9.17;;;6.60;83.40;;;;;;5041414;28;20424;-75
2023/12/09 10:41:11;;;;;;;35.37;10.00;;;6.70;83.50;;;;;;5042173;28;20384;-76
2023/12/09 10:43:37;;;;;;;33.83;9.97;;;6.70;83.30;;;;;;5043789;28;20072;-75
2023/12/09 10:46:03;;;;;;;26.93;9.10;;;6.70;83.50;;;;;;5043064;28;20072;-75
2023/12/09 10:48:30;;;;;;;25.43;8.67;;;6.70;83.20;;;;;;5041459;28;20120;-75
2023/12/09 10:50:56;;;;;;;28.70;8.17;;;6.80;83.20;;;;;;5043347;28;20454;-76
2023/12/09 10:53:21;;;;;;;30.53;10.40;;;6.80;83.00;;;;;;5043960;28;20049;-76
2023/12/09 10:55:48;;;;;;;28.40;8.10;;;6.90;83.00;;;;;;5042615;28;20057;-75
2023/12/09 10:58:14;;;;;;;26.63;7.10;;;6.90;82.50;;;;;;5042262;28;20036;-75
2023/12/09 11:00:41;;;;;;;27.20;6.97;;;6.90;82.60;;;;;;5028889;28;20049;-75
2023/12/09 11:03:08;;;;;;;28.90;10.83;;;6.90;82.60;;;;;;5041458;28;20033;-75
2023/12/09 11:05:44;;;;;;;21.23;6.40;;;6.90;82.30;;;;;;5043441;28;20132;-75
2023/12/09 11:08:12;;;;;;;30.00;7.70;;;6.90;82.40;;;;;;5044115;28;20037;-76
2023/12/09 11:10:38;;;;;;;24.67;8.33;;;6.90;82.60;;;;;;5038838;28;20061;-75
2023/12/09 11:13:03;;;;;;;23.23;8.10;;;6.90;82.20;;;;;;5042555;28;20045;-75
2023/12/09 11:15:32;;;;;;;25.13;7.80;;;7.00;82.30;;;;;;5041526;28;20052;-76
2023/12/09 11:18:08;;;;;;;21.17;6.80;;;7.00;82.20;;;;;;5042175;28;20396;-75
2023/12/09 11:20:40;;;;;;;21.67;5.87;;;7.00;82.00;;;;;;5042331;28;20156;-76
2023/12/09 11:23:11;;;;;;;17.57;5.13;;;7.00;82.30;;;;;;5043965;28;20106;-75
2023/12/09 11:25:41;;;;;;;24.20;5.70;;;7.00;82.30;;;;;;5032824;28;20043;-75
2023/12/09 11:28:09;;;;;;;18.13;5.87;;;7.00;82.00;;;;;;5034692;28;20040;-75
2023/12/09 11:30:36;;;;;;;18.73;5.73;;;7.00;81.90;;;;;;5038234;28;20051;-75
2023/12/09 11:33:04;;;;;;;20.43;5.63;;;7.00;82.10;;;;;;5043403;28;20538;-75
2023/12/09 11:35:30;;;;;;;20.47;5.13;;;7.00;82.00;;;;;;5042248;28;20038;-75
2023/12/09 11:37:58;;;;;;;21.33;5.77;;;7.00;82.00;;;;;;5045380;28;20080;-75
2023/12/09 11:40:27;;;;;;;23.03;6.47;;;7.00;82.10;;;;;;5044634;28;20052;-75
2023/12/09 11:42:53;;;;;;;24.43;6.57;;;6.90;81.90;;;;;;5045619;28;20044;-75
2023/12/09 11:45:21;;;;;;;28.37;4.90;;;6.90;82.00;;;;;;5045742;28;20045;-75
2023/12/09 11:47:47;;;;;;;20.73;5.47;;;6.90;82.00;;;;;;5045553;28;20377;-75
2023/12/09 11:50:16;;;;;;;22.90;6.93;;;6.90;81.90;;;;;;5040981;28;20041;-75
2023/12/09 11:52:46;;;;;;;17.70;4.87;;;6.90;81.80;;;;;;5045615;28;20080;-75
2023/12/09 11:55:14;;;;;;;25.63;6.27;;;7.00;81.80;;;;;;5044971;28;20050;-75
2023/12/09 11:57:40;;;;;;;21.40;7.30;;;7.00;81.50;;;;;;5045510;28;20499;-75
2023/12/09 12:00:06;;;;;;;17.63;8.43;;;7.00;81.80;;;;;;5044581;28;20060;-75
2023/12/09 12:02:35;;;;;;;20.63;5.83;;;7.00;81.50;;;;;;5045545;28;20045;-76
2023/12/09 12:05:01;;;;;;;19.23;7.93;;;7.00;81.50;;;;;;5045171;28;20049;-75
2023/12/09 12:07:27;;;;;;;19.73;5.53;;;7.00;81.20;;;;;;5044717;28;20048;-75
2023/12/09 12:09:52;;;;;;;22.47;5.67;;;7.00;81.40;;;;;;5044956;28;20380;-75
2023/12/09 12:12:19;;;;;;;25.77;15.83;;;7.00;81.40;;;;;;5042710;28;20049;-76
2023/12/09 12:14:46;;;;;;;17.43;5.40;;;7.00;80.60;;;;;;5046442;28;20135;-76
2023/12/09 12:17:12;;;;;;;17.63;5.77;;;7.00;81.10;;;;;;5031276;28;20052;-75
2023/12/09 12:19:39;;;;;;;19.50;6.80;;;7.00;81.10;;;;;;5025159;28;20076;-75
2023/12/09 12:22:05;;;;;;;16.70;4.27;;;7.00;80.80;;;;;;5024886;28;20369;-75
2023/12/09 12:24:44;;;;;;;16.37;5.37;;;7.00;81.10;;;;;;5025408;28;20080;-75
2023/12/09 12:27:10;;;;;;;16.10;5.30;;;7.00;81.10;;;;;;5039431;28;20041;-75
2023/12/09 12:29:40;;;;;;;18.80;4.87;;;7.00;81.10;;;;;;5037492;28;20111;-75
2023/12/09 12:32:07;;;;;;;20.87;8.47;;;7.00;81.10;;;;;;5027981;28;21177;-75